ePrivacy and GPDR Cookie Consent by Cookie Consent
EmailTwitter


Surface observations / Quebec / CYUL (71627)

Regions: Quebec | Canada | USA | Europe | France | UK | Elsewhere
Station
Display
Info & Location for CYUL (71627) | Help decoding METAR

Weather Conditions observed on 2021/07/28 at 19:00 UTC at MONTREAL INTL A, QB (CYUL)

Sky conditions: variable clouds.

Temperature: 22.0 Celsius.

Dewpoint: 10.0 Celsius.

Relative Humidity: 46%

Winds: South at 15 km/h or 8 knots.

Mean Sea level Pressure: 101.69 kilopascals.

Altimeter Setting (QNH): 101.66 kilopascals or 30.02 inches of mercury.

Horizontal visibility: 30.00 statute miles or 48.00 kilometers.

Coded METAR:

CYUL 281900Z 19008KT 30SM FEW060 SCT075 SCT250 22/10 A3002 RMK SC2AC2CI1 CI TR

SLP169 DENSITY ALT 900FT=